メインページ
METAR-TAF:

METAR-TAF

空港 :

中部国際空港

名古屋, 日本

緯度: 34-51-30N, 経度: 136-48-19E, 海抜: 5m

現時点の気象観測

当レポートは40分前の12:30(UTC)に作成
西の風 4kt
気温 20°C
湿度 78%
気圧 1010 hPa
視程10km以上
高度2000ftの雲はほとんどない
高度13000ftの雲は散在している
千切れ雲あり

METAR: RJGG 161230Z 27004KT 9999 FEW020 SCT130 BKN/// 20/16 Q1010 NOSIG

時間: 22:10 (13:10 UTC)

予報

当レポートは2時間5分前の11:05(UTC)に作成
予報は16日の 12時(UTC)から 17日の 18時(UTC)まで有効
西/南西の風 5kt
視程10km以上
高度2000ftの雲はほとんどない
16日の 13時(UTC)から 16日の 14時(UTC)まで徐々に
北西の風 12kt

TAF: RJGG 161105Z 1612/1718 25005KT 9999 FEW020 BECMG 1613/1614 32012KT

4,000以上の空港の気象観測と天気予報(METAR報とTAF報)

利用可能な観測所は地図上に黄色い丸と赤い丸で示す。

丸の上にカーソルを重ねると観測所名を参照できる。

次にクリックすると気象観測と天気予報を参照できる。

マップの切り替え:黒色「×」印の緑ボタンをクリックして拡大、「-」印の緑ボタンをクリックして縮小、緑色の三角印をクリックして隣りの地図に切り替え


METAR-TAF: